Flight Track Log - Related Links

Times and Time Zones

All times are in EDT time to prevent confusion due to time zone crossing. See the UAL3773 flight status page for this flight to view local times or setup timezone preferences in your user account.

Time Position Orientation Groundspeed Altitude Reporting Facility
EDT Latitude Longitude Course Direction KTS MPH feet Rate Location/Type
Mon 03:46:15 PM 38.8833 -77.4833 287° West 223 257 3,400  Level Potomac TRACON
Mon 03:48:27 PM 38.7961 -77.6292 233° Southwest 251 289 9,700 2,500 Climbing Washington Center
Mon 03:49:27 PM 38.8067 -77.7361 277° West 266 306 11,400 2,000 Climbing Washington Center
Mon 03:50:27 PM 38.8192 -77.8564 278° West 305 351 13,700 2,459 Climbing Washington Center
Mon 03:51:00 PM 38.8317 -78.1264 287° West  Level FlightAware
Mon 03:51:29 PM 38.8314 -77.9742 278° West 323 372 16,400  Level Washington Center
Mon 03:52:27 PM 38.8436 -78.0969 277° West 345 397 17,900 1,983 Climbing Washington Center
Mon 03:53:27 PM 38.8511 -78.2253 274° West 357 411 20,300 1,950 Climbing Washington Center
Mon 03:54:27 PM 38.8506 -78.3531 270° West 357 411 21,800 1,500 Climbing Washington Center
Mon 03:55:27 PM 38.8494 -78.4864 269° West 368 423 23,300 1,600 Climbing Washington Center
Mon 03:56:27 PM 38.8481 -78.6250 269° West 378 435 25,000 1,600 Climbing Washington Center
Mon 03:57:27 PM 38.8467 -78.7608 269° West 383 441 26,500 1,000 Climbing Washington Center
Mon 03:58:27 PM 38.8428 -78.8992 268° West 383 441 27,000 250 Climbing Washington Center
Mon 03:59:27 PM 38.8408 -79.0458 269° West 393 452 27,000 200 Level Washington Center
Mon 04:00:27 PM 38.8406 -79.1950 270° West 410 472 27,400 1,000 Climbing Washington Center
Mon 04:01:27 PM 38.8364 -79.3361 268° West 410 472 29,000 1,100 Climbing Washington Center
Mon 04:02:27 PM 38.8339 -79.4800 269° West 410 472 29,600 1,150 Climbing Washington Center
Mon 04:03:27 PM 38.8347 -79.6453 270° West 412 474 31,300 1,535 Climbing Washington Center
Mon 04:05:19 PM 38.8258 -79.8744 267° West 378 435 34,000 1,345 Climbing Indianapolis Center
Mon 04:06:21 PM 38.8222 -80.0081 268° West 375 432 35,200 1,065 Climbing Indianapolis Center
Mon 04:07:23 PM 38.8194 -80.1397 268° West 370 426 36,200 1,024 Climbing Indianapolis Center
Mon 04:08:24 PM 38.8156 -80.2694 268° West 365 420 37,300 878 Climbing Indianapolis Center
Mon 04:09:26 PM 38.8108 -80.4228 268° West 359 413 38,000 339 Climbing Indianapolis Center
Mon 04:10:28 PM 38.8078 -80.5528 268° West 363 418 38,000  Level Indianapolis Center
Mon 04:11:30 PM 38.8036 -80.6886 268° West 380 437 38,000  Level Indianapolis Center
Mon 04:12:32 PM 38.7994 -80.8278 268° West 389 448 38,000  Level Indianapolis Center
Mon 04:13:34 PM 38.7947 -80.9678 268° West 393 452 38,000  Level Indianapolis Center
Mon 04:14:36 PM 38.7897 -81.1092 267° West 397 457 38,000  Level Indianapolis Center
Mon 04:15:38 PM 38.7842 -81.2783 268° West 397 457 38,000  Level Indianapolis Center
Mon 04:16:39 PM 38.7792 -81.4125 267° West 397 457 38,000  Level Indianapolis Center
Mon 04:17:41 PM 38.7744 -81.5564 268° West 402 463 38,000  Level Indianapolis Center
Mon 04:18:43 PM 38.7689 -81.6947 267° West 398 458 38,000  Level Indianapolis Center
Mon 04:19:45 PM 38.7631 -81.8344 267° West 398 458 38,000  Level Indianapolis Center
Mon 04:20:47 PM 38.7561 -82.0022 267° West 396 456 38,000  Level Indianapolis Center
Mon 04:21:49 PM 38.7503 -82.1419 267° West 393 452 38,000  Level Indianapolis Center
Mon 04:22:51 PM 38.7456 -82.2828 268° West 394 453 38,000  Level Indianapolis Center
Mon 04:23:53 PM 38.7392 -82.4211 267° West 392 451 38,000  Level Indianapolis Center
Mon 04:24:55 PM 38.7344 -82.5608 268° West 392 451 38,000  Level Indianapolis Center
Mon 04:25:57 PM 38.7278 -82.6994 267° West 391 450 38,000  Level Indianapolis Center
Mon 04:26:59 PM 38.7211 -82.8675 267° West 393 452 38,000  Level Indianapolis Center
Mon 04:28:01 PM 38.7144 -83.0064 267° West 391 450 38,000  Level Indianapolis Center
Mon 04:29:03 PM 38.7083 -83.1472 267° West 394 453 38,000  Level Indianapolis Center
Mon 04:30:05 PM 38.7014 -83.2858 266° West 390 449 38,000  Level Indianapolis Center
Mon 04:31:07 PM 38.6953 -83.4267 267° West 390 449 38,000  Level Indianapolis Center
Mon 04:32:09 PM 38.6878 -83.5661 266° West 390 449 38,000  Level Indianapolis Center
Mon 04:33:11 PM 38.6814 -83.7058 267° West 390 449 38,000  Level Indianapolis Center
Mon 04:34:13 PM 38.6728 -83.8686 266° West 390 449 38,000  Level Indianapolis Center
Mon 04:35:15 PM 38.6653 -84.0081 266° West 390 449 38,000  Level Indianapolis Center
Mon 04:36:17 PM 38.6581 -84.1478 266° West 389 448 38,000  Level Indianapolis Center
Mon 04:37:19 PM 38.6506 -84.2892 266° West 393 452 38,000  Level Indianapolis Center
Mon 04:38:21 PM 38.6572 -84.4294 274° West 393 452 38,000  Level Indianapolis Center
Mon 04:39:23 PM 38.6647 -84.5736 274° West 393 452 38,000  Level Indianapolis Center
Mon 04:40:25 PM 38.6719 -84.7144 274° West 396 456 38,000  Level Indianapolis Center
Mon 04:41:27 PM 38.6811 -84.8778 274° West 395 455 38,000  Level Indianapolis Center
Mon 04:42:29 PM 38.6872 -84.9964 274° West 396 456 38,000  Level Indianapolis Center
Mon 04:43:31 PM 38.6956 -85.1353 274° West 393 452 38,000  Level Indianapolis Center
Mon 04:44:33 PM 38.7044 -85.3017 274° West 390 449 38,000  Level Indianapolis Center
Mon 04:45:35 PM 38.7122 -85.4417 274° West 393 452 38,000  Level Indianapolis Center
Mon 04:46:37 PM 38.7189 -85.5789 274° West 388 447 38,000  Level Indianapolis Center
Mon 04:47:39 PM 38.7247 -85.7181 273° West 390 449 38,000  Level Indianapolis Center
Mon 04:48:41 PM 38.7314 -85.8569 274° West 390 449 38,000  Level Indianapolis Center
Mon 04:49:43 PM 38.7389 -85.9964 274° West 391 450 38,000  Level Indianapolis Center
Mon 04:50:44 PM 38.7467 -86.1353 274° West 392 451 38,000  Level Indianapolis Center
Mon 04:51:46 PM 38.7536 -86.3006 273° West 389 448 38,000  Level Indianapolis Center
Mon 04:52:48 PM 38.7597 -86.4394 273° West 390 449 38,000  Level Indianapolis Center
Mon 04:53:50 PM 38.7650 -86.5775 273° West 391 450 38,000  Level Indianapolis Center
Mon 04:54:52 PM 38.7711 -86.7156 273° West 390 449 38,000  Level Indianapolis Center
Mon 04:55:54 PM 38.7767 -86.8542 273° West 390 449 38,000  Level Indianapolis Center
Mon 04:56:55 PM 38.8008 -86.9911 283° West 395 455 38,000  Level Indianapolis Center
Mon 04:57:57 PM 38.8297 -87.1533 283° West 392 451 38,000  Level Indianapolis Center
Mon 04:58:59 PM 38.8544 -87.2900 283° West 394 453 38,000  Level Indianapolis Center
Mon 05:00:01 PM 38.8778 -87.4258 282° West 392 451 38,000  Level Indianapolis Center
Mon 05:01:02 PM 38.9014 -87.5614 283° West 391 450 38,000  Level Indianapolis Center
Mon 05:02:04 PM 38.9261 -87.6969 283° West 390 449 38,000  Level Indianapolis Center
Mon 05:03:06 PM 38.9494 -87.8342 282° West 393 452 38,000  Level Indianapolis Center
Mon 05:04:08 PM 38.9731 -87.9725 282° West 395 455 38,000  Level Indianapolis Center
Mon 05:05:09 PM 38.9967 -88.1092 283° West 392 451 38,000  Level Indianapolis Center
Mon 05:06:11 PM 39.0244 -88.2753 282° West 394 453 38,000  Level Indianapolis Center
Mon 05:07:06 PM 39.0419 -88.3869 281° West 394 453 38,000  Level Kansas Center
Mon 05:08:06 PM 39.0661 -88.5242 283° West 393 452 38,000  Level Kansas Center
Mon 05:09:10 PM 39.0894 -88.6658 282° West 396 456 38,000  Level Kansas Center
Mon 05:10:11 PM 39.1117 -88.8050 282° West 398 458 38,000  Level Kansas Center
Mon 05:11:15 PM 39.1406 -88.9717 283° West 401 461 38,000  Level Kansas Center
Mon 05:12:16 PM 39.1622 -89.1139 281° West 403 464 38,000  Level Kansas Center
Mon 05:13:16 PM 39.1861 -89.2547 282° West 403 464 38,000  Level Kansas Center
Mon 05:14:20 PM 39.2081 -89.3947 281° West 401 461 38,000  Level Kansas Center
Mon 05:15:21 PM 39.2294 -89.5344 281° West 401 461 38,000  Level Kansas Center
Mon 05:16:23 PM 39.2519 -89.6744 282° West 402 463 38,000  Level Kansas Center
Mon 05:17:27 PM 39.2778 -89.8411 281° West 399 459 38,000  Level Kansas Center
Mon 05:18:28 PM 39.2997 -89.9789 282° West 396 456 38,000  Level Kansas Center
Mon 05:19:28 PM 39.3208 -90.1181 281° West 397 457 38,000  Level Kansas Center
Mon 05:20:31 PM 39.3422 -90.2575 281° West 398 458 38,000  Level Kansas Center
Mon 05:21:35 PM 39.3631 -90.3986 281° West 401 461 38,000  Level Kansas Center
Mon 05:22:36 PM 39.3875 -90.5672 281° West 401 461 38,000  Level Kansas Center
Mon 05:23:37 PM 39.4083 -90.7053 281° West 397 457 38,000  Level Kansas Center
Mon 05:24:40 PM 39.4281 -90.8422 281° West 393 452 38,000  Level Kansas Center
Mon 05:25:41 PM 39.4481 -90.9797 281° West 392 451 38,000  Level Kansas Center
Mon 05:26:44 PM 39.4681 -91.1144 281° West 386 444 38,000  Level Kansas Center
Mon 05:27:46 PM 39.4861 -91.2503 280° West 385 443 38,000  Level Kansas Center
Mon 05:28:46 PM 39.5061 -91.3906 281° West 383 441 38,000  Level Kansas Center
Mon 05:29:48 PM 39.5297 -91.5508 281° West 381 438 38,000  Level Kansas Center
Mon 05:30:52 PM 39.5481 -91.6856 280° West 381 438 38,000  Level Kansas Center
Mon 05:31:52 PM 39.5653 -91.8208 279° West 382 440 38,000  Level Kansas Center
Mon 05:32:56 PM 39.5847 -91.9542 281° West 380 437 38,000  Level Kansas Center
Mon 05:33:56 PM 39.6025 -92.0861 280° West 377 434 38,000  Level Kansas Center
Mon 05:34:59 PM 39.6200 -92.2208 280° West 378 435 38,000 -912 Level Kansas Center
Mon 05:36:01 PM 39.6419 -92.3825 280° West 380 437 36,100 -1,918 Descending Kansas Center
Mon 05:37:01 PM 39.6547 -92.5211 277° West 384 442 34,100 -1,968 Descending Kansas Center
Mon 05:38:06 PM 39.6522 -92.6592 269° West 385 443 32,000 -1,968 Descending Kansas Center
Mon 05:39:06 PM 39.6503 -92.7947 269° West 380 437 30,000 -1,983 Descending Kansas Center
Mon 05:40:07 PM 39.6481 -92.9333 269° West 382 440 28,000 -1,935 Descending Kansas Center
Mon 05:41:10 PM 39.6458 -93.0753 269° West 390 449 26,000 -2,129 Descending Kansas Center
Mon 05:42:11 PM 39.6422 -93.2442 268° West 392 451 23,600 -2,112 Descending Kansas Center
Mon 05:43:15 PM 39.6400 -93.3825 269° West 388 447 21,600 -2,032 Descending Kansas Center
Mon 05:44:15 PM 39.6372 -93.5214 269° West 387 445 19,400 -2,132 Descending Kansas Center
Mon 05:45:16 PM 39.6353 -93.6558 269° West 377 434 17,300 -2,081 Descending Kansas Center
Mon 05:46:19 PM 39.6317 -93.8056 268° West 365 420 15,100 -1,984 Descending Kansas Center
Mon 05:47:20 PM 39.6086 -93.9206 255° West 351 404 13,200 -1,500 Descending Kansas Center
Mon 05:48:23 PM 39.5581 -94.0172 236° Southwest 339 390 12,000 -576 Descending Kansas Center
Mon 05:49:25 PM 39.4997 -94.1339 237° Southwest 346 398 12,000  Level Kansas Center
Mon 05:50:26 PM 39.4494 -94.2331 237° Southwest 345 397 12,000  Level Kansas Center
Mon 05:51:27 PM 39.3906 -94.3467 236° Southwest 340 391 12,000 -48 Level Kansas Center
Mon 05:52:32 PM 39.3453 -94.4358 237° Southwest 307 353 11,900 -476 Descending Kansas Center
Mon 05:53:33 PM 39.3042 -94.5172 237° Southwest 236 272 11,000 -1,180 Descending Kansas Center
Mon 05:54:34 PM 39.2725 -94.5794 237° Southwest 218 251 9,500 -1,872 Descending Kansas Center
Mon 05:55:38 PM 39.2158 -94.6097 202° Southwest 207 238 7,100 -2,160 Descending Kansas Center
Mon 05:56:39 PM 39.1686 -94.6472 212° Southwest 211 243 5,000 -1,983 Descending Kansas Center
Mon 05:57:39 PM 39.1456 -94.7106 245° Southwest 229 264 3,100 -968 Descending Kansas Center
Mon 05:58:43 PM 39.1808 -94.7614 312° West 178 205 3,000 -339 Descending Kansas Center
Mon 05:59:43 PM 39.2275 -94.7497 11° North 178 205 2,400 -677 Descending Kansas Center
Mon 06:00:47 PM 39.2656 -94.7381 13° North 125 144 1,600 -677 Descending Kansas Center
Mon 06:01:47 PM 39.3008 -94.7272 13° North 123 142 1,000 -600 Descending Kansas Center

Login

Don't have an account? Register now (free) for customized features, flight alerts, and more!